Airfield :
LOGIN :

Register | Disclaimer

   EN    FR    IT 

 










Legend :    VFR   Marginal VFR   IFR   Intensive IFR   Very Intensive IFR
Visi :
Ceiling :
>= 8 km
>= 3000ft
5 to 8 km
1000 to 3000 ft
1500m to 5 km
500 to 1000 ft
800 to 1500m
200 to 500 ft
< 800m
< 200 ft
Symbols :   Thunderstorms  Fog  Heavy snow  Heavy precipitations  Wind > 20 kt
SIGMETs :     Misc.  Thunderstorms  Icing  Turbulence  Mountain Waves  Volcanic Ashes






- Airport Elevation : 751 ft
- IATA code : ENC


LFSN - Nancy Essey

CURRENT METAR :
  • 280700Z AUTO 15004KT 9999 -RA FEW035 SCT041 BKN054 08/06 Q1013

EXPIRED METARs :
  • 280630Z AUTO 18003KT 160V220 9999 -RA BKN025/// OVC035/// //////TCU 08/05 Q1013
  • 280600Z AUTO 18005KT 9999 BKN026 BKN031 OVC049 08/05 Q1013
  • 280530Z AUTO 17005KT 9999 BKN047 OVC120 08/05 Q1012
  • 280500Z AUTO 18006KT 160V220 9999 ///TCU 08/05 Q1012

Expired Forecast.



MET'MAP, your aeronautical weather chart ! - Copyright ORBIFLY December 2007 - Disclaimer

ORBIFLY MET'MAP TEAM :

Programming & Development : Alexandra Zaïnal
Original concept : Baudouin d'Aumeries
Technical & hardware support : Manuel Goepfert
Assistance : Marc-Olivier Méhu




SOURCES & CREDITS :

   NOAA